createdAt,value
2023-10-10T00:00:24.981Z,9.50
2023-10-10T00:02:52.590Z,8.50
2023-10-10T00:05:20.287Z,9.00
2023-10-10T00:07:47.906Z,9.18
2023-10-10T00:10:14.589Z,8.77
2023-10-10T00:12:41.474Z,8.70
2023-10-10T00:15:14.782Z,8.53
2023-10-10T00:17:42.405Z,8.40
2023-10-10T00:20:23.375Z,8.18
2023-10-10T00:22:51.052Z,8.90
2023-10-10T00:25:19.888Z,8.63
2023-10-10T00:27:48.204Z,8.37
2023-10-10T00:30:15.086Z,8.65
2023-10-10T00:32:44.056Z,8.55
2023-10-10T00:35:13.309Z,8.50
2023-10-10T00:37:39.776Z,8.43
2023-10-10T00:40:11.316Z,8.27
2023-10-10T00:42:38.505Z,8.07
2023-10-10T00:45:15.270Z,8.10
2023-10-10T00:47:48.682Z,8.10
2023-10-10T00:50:17.750Z,8.00
2023-10-10T00:52:49.774Z,8.30
2023-10-10T00:55:22.992Z,8.10
2023-10-10T00:57:53.911Z,8.10
2023-10-10T01:00:21.365Z,7.72
2023-10-10T01:02:51.027Z,7.80
2023-10-10T01:05:24.547Z,7.90
2023-10-10T01:07:52.494Z,8.25
2023-10-10T01:10:19.104Z,7.78
2023-10-10T01:12:47.770Z,8.27
2023-10-10T01:15:15.037Z,8.43
2023-10-10T01:17:44.130Z,8.40
2023-10-10T01:20:35.372Z,8.80
2023-10-10T01:23:03.811Z,8.80
2023-10-10T01:25:36.559Z,9.15
2023-10-10T01:28:17.265Z,9.07
2023-10-10T01:30:56.590Z,9.17
2023-10-10T01:33:26.329Z,9.07
2023-10-10T01:35:56.967Z,9.23
2023-10-10T01:39:19.960Z,9.23
2023-10-10T01:41:49.722Z,8.82
2023-10-10T01:44:19.484Z,9.27
2023-10-10T01:46:46.626Z,9.77
2023-10-10T01:49:21.597Z,9.55
2023-10-10T01:51:56.257Z,9.80
2023-10-10T01:54:35.806Z,9.95
2023-10-10T01:57:05.266Z,10.07
2023-10-10T01:59:36.732Z,10.15
2023-10-10T02:02:10.155Z,10.25
2023-10-10T02:04:37.504Z,10.68
2023-10-10T02:07:14.766Z,11.18
2023-10-10T02:09:41.530Z,11.60
2023-10-10T02:12:17.067Z,12.00
2023-10-10T02:14:46.683Z,11.73
2023-10-10T02:17:24.292Z,12.30
2023-10-10T02:19:55.590Z,11.32
2023-10-10T02:22:34.145Z,12.37
2023-10-10T02:25:32.753Z,12.63
2023-10-10T02:28:04.319Z,14.25
2023-10-10T02:30:37.486Z,13.85
2023-10-10T02:33:24.631Z,14.68
2023-10-10T02:35:55.583Z,14.20
2023-10-10T02:38:41.748Z,14.95
2023-10-10T02:41:35.236Z,14.25
2023-10-10T02:44:11.164Z,14.40
2023-10-10T02:46:39.541Z,15.02
2023-10-10T02:49:24.106Z,15.37
2023-10-10T02:51:57.772Z,15.63
2023-10-10T02:54:35.769Z,15.82
2023-10-10T02:57:25.225Z,15.85
2023-10-10T02:59:53.509Z,15.40
2023-10-10T03:02:20.959Z,15.93
2023-10-10T03:05:06.982Z,15.80
2023-10-10T03:07:36.452Z,16.38
2023-10-10T03:10:16.073Z,16.42
2023-10-10T03:12:43.252Z,16.17
2023-10-10T03:15:15.960Z,16.77
2023-10-10T03:17:49.466Z,16.50
2023-10-10T03:20:25.679Z,16.67
2023-10-10T03:23:11.901Z,17.30
2023-10-10T03:25:47.657Z,16.90
2023-10-10T03:28:31.775Z,17.47
2023-10-10T03:31:24.725Z,17.67
2023-10-10T03:34:10.474Z,17.17
2023-10-10T03:36:46.487Z,17.80
2023-10-10T03:39:18.409Z,18.52
2023-10-10T03:42:03.574Z,18.97
2023-10-10T03:44:48.388Z,18.42
2023-10-10T03:47:33.404Z,17.65
2023-10-10T03:50:20.360Z,18.60
2023-10-10T03:53:05.627Z,18.83
2023-10-10T03:56:08.218Z,18.10
2023-10-10T03:58:53.136Z,18.58
2023-10-10T04:01:37.855Z,17.60
2023-10-10T04:04:23.384Z,17.52
2023-10-10T04:07:08.476Z,18.77
2023-10-10T04:09:53.385Z,18.37
2023-10-10T04:12:38.336Z,17.55
2023-10-10T04:15:23.702Z,18.17
2023-10-10T04:18:08.491Z,19.20
2023-10-10T04:20:53.243Z,19.08
2023-10-10T04:23:38.574Z,18.73
2023-10-10T04:26:23.912Z,18.27
2023-10-10T04:29:09.077Z,18.92
2023-10-10T04:31:54.341Z,18.83
2023-10-10T04:34:39.551Z,18.45
2023-10-10T04:37:24.366Z,18.83
2023-10-10T04:40:09.127Z,18.83
2023-10-10T04:42:53.996Z,19.17
2023-10-10T04:45:38.971Z,18.13
2023-10-10T04:48:24.483Z,19.30
2023-10-10T04:51:10.437Z,18.70
2023-10-10T04:53:55.862Z,19.83
2023-10-10T04:56:40.762Z,20.25
2023-10-10T04:59:45.417Z,19.33
2023-10-10T05:02:30.766Z,19.13
2023-10-10T05:05:15.907Z,19.53
2023-10-10T05:08:00.906Z,19.05
2023-10-10T05:10:46.019Z,18.45
2023-10-10T05:13:30.925Z,12.05
2023-10-10T05:16:21.853Z,17.80
2023-10-10T05:19:06.843Z,13.40
2023-10-10T05:21:51.692Z,15.57
2023-10-10T05:24:22.103Z,13.45
2023-10-10T05:26:48.723Z,16.13
2023-10-10T05:29:15.880Z,13.52
2023-10-10T05:31:45.840Z,15.77
2023-10-10T05:34:16.288Z,16.33
2023-10-10T05:36:43.599Z,14.75
2023-10-10T05:39:18.774Z,14.93
2023-10-10T05:41:45.857Z,15.88
2023-10-10T05:44:14.715Z,16.60
2023-10-10T05:46:41.695Z,14.30
2023-10-10T05:49:08.202Z,16.30
2023-10-10T05:51:34.658Z,16.27
2023-10-10T05:54:01.087Z,17.95
2023-10-10T05:56:27.689Z,15.57
2023-10-10T05:58:55.141Z,15.05
2023-10-10T06:01:21.868Z,18.52
2023-10-10T06:03:48.469Z,17.08
2023-10-10T06:06:16.919Z,18.40
2023-10-10T06:08:44.101Z,15.37
2023-10-10T06:11:12.707Z,19.55
2023-10-10T06:13:41.876Z,17.92
2023-10-10T06:16:18.850Z,18.25
2023-10-10T06:18:47.505Z,16.25
2023-10-10T06:21:16.085Z,19.17
2023-10-10T06:23:45.428Z,16.65
2023-10-10T06:26:13.852Z,17.65
2023-10-10T06:28:46.852Z,18.35
2023-10-10T06:31:21.904Z,17.02
2023-10-10T06:33:52.160Z,19.87
2023-10-10T06:36:33.578Z,20.05
2023-10-10T06:39:02.792Z,20.92
2023-10-10T06:41:36.528Z,21.45
2023-10-10T06:44:05.683Z,22.35
2023-10-10T06:46:38.319Z,21.47
2023-10-10T06:49:07.947Z,22.15
2023-10-10T06:51:40.946Z,22.42
2023-10-10T06:54:09.901Z,22.75
2023-10-10T06:56:46.846Z,22.60
2023-10-10T06:59:21.775Z,22.47
2023-10-10T07:01:49.609Z,22.00
2023-10-10T07:04:17.709Z,23.30
2023-10-10T07:06:46.081Z,23.67
2023-10-10T07:09:15.814Z,23.42
2023-10-10T07:11:43.189Z,23.27
2023-10-10T07:14:12.060Z,23.90
2023-10-10T07:16:44.337Z,23.63
2023-10-10T07:19:21.079Z,23.80
2023-10-10T07:21:49.066Z,24.63
2023-10-10T07:24:16.766Z,25.37
2023-10-10T07:26:45.002Z,24.88
2023-10-10T07:29:27.331Z,24.77
2023-10-10T07:32:08.483Z,25.15
2023-10-10T07:34:40.344Z,25.65
2023-10-10T07:37:09.989Z,24.37
2023-10-10T07:39:37.872Z,24.75
2023-10-10T07:42:10.395Z,24.70
2023-10-10T07:44:37.576Z,24.85
2023-10-10T07:47:11.082Z,25.00
2023-10-10T07:49:41.303Z,23.37
2023-10-10T07:52:17.137Z,24.83
2023-10-10T07:54:47.083Z,23.45
2023-10-10T07:57:19.920Z,22.35
2023-10-10T07:59:47.655Z,22.42
2023-10-10T08:02:27.949Z,21.50
2023-10-10T08:04:55.470Z,22.52
2023-10-10T08:07:24.899Z,21.02
2023-10-10T08:10:11.886Z,21.48
2023-10-10T08:12:39.373Z,22.10
2023-10-10T08:15:20.542Z,22.03
2023-10-10T08:17:56.774Z,21.75
2023-10-10T08:20:44.158Z,20.13
2023-10-10T08:23:10.848Z,20.00
2023-10-10T08:25:39.972Z,20.58
2023-10-10T08:28:07.579Z,19.37
2023-10-10T08:30:34.749Z,20.17
2023-10-10T08:33:02.924Z,19.48
2023-10-10T08:35:31.318Z,19.13
2023-10-10T08:37:58.351Z,19.52
2023-10-10T08:40:31.711Z,19.97
2023-10-10T08:42:58.480Z,19.52
2023-10-10T08:45:26.617Z,20.70
2023-10-10T08:48:04.156Z,18.40
2023-10-10T08:50:34.897Z,17.75
2023-10-10T08:53:01.612Z,18.20
2023-10-10T08:55:29.234Z,18.90
2023-10-10T08:57:56.746Z,18.67
2023-10-10T09:00:28.164Z,19.08
2023-10-10T09:02:56.341Z,19.38
2023-10-10T09:05:25.386Z,18.40
2023-10-10T09:07:54.244Z,20.02
2023-10-10T09:10:29.444Z,18.90
2023-10-10T09:12:56.843Z,19.77
2023-10-10T09:15:24.891Z,19.55
2023-10-10T09:17:56.983Z,18.33
2023-10-10T09:20:31.591Z,18.83
2023-10-10T09:23:17.135Z,17.52
2023-10-10T09:25:45.386Z,18.52
2023-10-10T09:28:16.865Z,19.02
2023-10-10T09:31:13.859Z,18.47
2023-10-10T09:33:46.767Z,19.88
2023-10-10T09:36:20.722Z,19.08
2023-10-10T09:38:55.749Z,20.10
2023-10-10T09:41:32.411Z,16.23
2023-10-10T09:44:24.401Z,16.47
2023-10-10T09:47:10.262Z,20.40
2023-10-10T09:49:41.720Z,20.17
2023-10-10T09:52:32.230Z,18.35
2023-10-10T09:55:27.094Z,18.65
2023-10-10T09:58:06.837Z,19.27
2023-10-10T10:00:43.518Z,18.80
2023-10-10T10:03:30.370Z,19.20
2023-10-10T10:06:29.818Z,18.60
2023-10-10T10:09:33.574Z,17.88
2023-10-10T10:12:20.458Z,18.27
2023-10-10T10:15:21.049Z,18.17
2023-10-10T10:18:20.588Z,17.45
2023-10-10T10:21:05.590Z,17.98
2023-10-10T10:23:35.088Z,17.92
2023-10-10T10:26:12.110Z,17.20
2023-10-10T10:28:42.856Z,16.48
2023-10-10T10:31:28.813Z,18.33
2023-10-10T10:34:11.357Z,16.85
2023-10-10T10:36:55.776Z,16.67
2023-10-10T10:39:26.516Z,17.50
2023-10-10T10:41:57.264Z,17.63
2023-10-10T10:44:54.980Z,17.75
2023-10-10T10:47:40.080Z,17.95
2023-10-10T10:50:18.735Z,17.65
2023-10-10T10:52:57.132Z,18.80
2023-10-10T10:55:30.447Z,16.02
2023-10-10T10:58:07.468Z,16.17
2023-10-10T11:01:01.580Z,16.40
2023-10-10T11:03:36.449Z,15.52
2023-10-10T11:06:07.937Z,12.87
2023-10-10T11:11:31.892Z,15.73
2023-10-10T11:14:05.053Z,15.80
2023-10-10T11:16:38.461Z,13.35
2023-10-10T11:19:20.415Z,15.40
2023-10-10T11:21:54.826Z,15.82
2023-10-10T11:24:26.880Z,10.75
2023-10-10T11:27:16.533Z,13.13
2023-10-10T11:29:46.116Z,13.35
2023-10-10T11:32:14.953Z,13.07
2023-10-10T11:34:45.010Z,11.77
2023-10-10T11:37:14.939Z,12.82
2023-10-10T11:39:59.218Z,13.52
2023-10-10T11:42:29.581Z,12.70
2023-10-10T11:45:03.273Z,12.87
2023-10-10T11:47:30.022Z,12.00
2023-10-10T11:50:06.524Z,10.15
2023-10-10T11:52:36.324Z,13.27
2023-10-10T11:55:08.868Z,13.07
2023-10-10T11:57:35.889Z,12.93
2023-10-10T12:00:26.331Z,12.10
2023-10-10T12:02:56.597Z,11.85
2023-10-10T12:05:28.927Z,13.05
2023-10-10T12:07:59.487Z,12.45
2023-10-10T12:10:40.942Z,12.97
2023-10-10T12:13:10.824Z,13.15
2023-10-10T12:15:46.213Z,11.43
2023-10-10T12:18:12.910Z,12.10
2023-10-10T12:20:43.633Z,12.13
2023-10-10T12:23:10.514Z,11.63
2023-10-10T12:25:42.203Z,12.27
2023-10-10T12:28:11.158Z,12.02
2023-10-10T12:30:41.685Z,11.57
2023-10-10T12:33:09.765Z,10.73
2023-10-10T12:35:36.921Z,11.77
2023-10-10T12:38:03.477Z,11.18
2023-10-10T12:40:34.762Z,10.35
2023-10-10T12:43:04.911Z,10.05
2023-10-10T12:45:34.314Z,10.90
2023-10-10T12:48:03.847Z,10.43
2023-10-10T12:50:30.910Z,11.02
2023-10-10T12:53:09.231Z,8.63
2023-10-10T12:55:37.783Z,10.40
2023-10-10T12:58:16.201Z,9.95
2023-10-10T13:00:51.115Z,10.90
2023-10-10T13:03:29.980Z,10.15
2023-10-10T13:06:00.151Z,10.48
2023-10-10T13:08:40.154Z,11.13
2023-10-10T13:11:15.969Z,11.10
2023-10-10T13:13:46.818Z,10.73
2023-10-10T13:16:26.513Z,10.32
2023-10-10T13:18:54.530Z,8.93
2023-10-10T13:21:21.348Z,8.43
2023-10-10T13:23:49.001Z,9.02
2023-10-10T13:26:17.631Z,9.43
2023-10-10T13:28:47.910Z,8.82
2023-10-10T13:31:19.143Z,8.65
2023-10-10T13:33:46.480Z,9.93
2023-10-10T13:36:16.190Z,10.18
2023-10-10T13:38:51.672Z,9.43
2023-10-10T13:41:20.282Z,9.85
2023-10-10T13:43:48.291Z,9.13
2023-10-10T13:46:22.220Z,9.48
2023-10-10T13:48:49.070Z,9.80
2023-10-10T13:51:16.597Z,8.80
2023-10-10T13:53:46.035Z,8.40
2023-10-10T13:56:17.996Z,9.57
2023-10-10T13:58:53.360Z,9.93
2023-10-10T14:01:31.116Z,9.88
2023-10-10T14:04:05.881Z,9.17
2023-10-10T14:06:46.928Z,9.63
2023-10-10T14:09:26.588Z,9.55
2023-10-10T14:11:58.366Z,9.52
2023-10-10T14:14:25.156Z,9.57
2023-10-10T14:16:52.318Z,8.43
2023-10-10T14:19:19.310Z,7.40
2023-10-10T14:21:48.694Z,8.32
2023-10-10T14:24:15.712Z,8.93
2023-10-10T14:26:44.807Z,7.82
2023-10-10T14:29:15.219Z,6.27
2023-10-10T14:31:46.561Z,8.88
2023-10-10T14:34:21.233Z,9.30
2023-10-10T14:36:51.933Z,9.43
2023-10-10T14:39:37.702Z,9.55
2023-10-10T14:42:04.820Z,8.77
2023-10-10T14:44:32.770Z,8.20
2023-10-10T14:46:59.547Z,7.70
2023-10-10T14:49:32.849Z,8.63
2023-10-10T14:52:07.601Z,8.23
2023-10-10T14:54:49.940Z,8.40
2023-10-10T14:57:25.562Z,7.78
2023-10-10T14:59:56.837Z,7.32
2023-10-10T15:02:27.458Z,7.80
2023-10-10T15:04:55.736Z,7.38
2023-10-10T15:07:22.217Z,6.77
2023-10-10T15:09:48.674Z,7.03
2023-10-10T15:12:15.159Z,6.97
2023-10-10T15:14:44.027Z,6.57
2023-10-10T15:17:11.294Z,6.78
2023-10-10T15:19:37.892Z,7.03
2023-10-10T15:22:04.640Z,7.63
2023-10-10T15:24:34.166Z,7.70
2023-10-10T15:27:01.342Z,8.05
2023-10-10T15:29:28.250Z,7.82
2023-10-10T15:31:57.291Z,7.77
2023-10-10T15:34:24.723Z,7.82
2023-10-10T15:36:51.197Z,8.30
2023-10-10T15:39:18.437Z,8.30
2023-10-10T15:41:45.970Z,8.20
2023-10-10T15:44:13.832Z,7.87
2023-10-10T15:46:44.015Z,8.40
2023-10-10T15:49:25.210Z,8.20
2023-10-10T15:52:05.572Z,9.10
2023-10-10T15:54:35.302Z,8.30
2023-10-10T15:57:05.348Z,8.10
2023-10-10T15:59:31.900Z,7.65
2023-10-10T16:01:59.540Z,8.45
2023-10-10T16:04:27.463Z,7.68
2023-10-10T16:06:53.971Z,8.40
2023-10-10T16:09:21.660Z,7.87
2023-10-10T16:11:54.620Z,8.00
2023-10-10T16:14:21.684Z,8.30
2023-10-10T16:16:49.039Z,8.13
2023-10-10T16:19:21.870Z,7.97
2023-10-10T16:21:49.627Z,7.40
2023-10-10T16:24:16.161Z,8.05
2023-10-10T16:26:43.955Z,8.07
2023-10-10T16:29:12.341Z,8.27
2023-10-10T16:31:44.387Z,7.65
2023-10-10T16:34:12.253Z,8.40
2023-10-10T16:36:39.205Z,7.78
2023-10-10T16:39:12.132Z,7.88
2023-10-10T16:41:39.293Z,9.23
2023-10-10T16:44:05.961Z,7.57
2023-10-10T16:46:33.146Z,7.80
2023-10-10T16:49:00.252Z,7.70
2023-10-10T16:51:33.271Z,6.70
2023-10-10T16:54:00.359Z,7.18
2023-10-10T16:56:27.397Z,7.43
2023-10-10T16:58:53.889Z,7.20
2023-10-10T17:01:24.094Z,6.93
2023-10-10T17:03:55.548Z,6.88
2023-10-10T17:06:24.039Z,6.93
2023-10-10T17:08:54.363Z,7.40
2023-10-10T17:11:24.230Z,7.30
2023-10-10T17:13:52.243Z,8.02
2023-10-10T17:16:26.953Z,7.40
2023-10-10T17:18:54.698Z,7.40
2023-10-10T17:21:26.001Z,7.30
2023-10-10T17:23:56.155Z,7.57
2023-10-10T17:26:23.190Z,7.35
2023-10-10T17:28:51.239Z,7.40
2023-10-10T17:31:24.136Z,7.82
2023-10-10T17:33:55.423Z,7.35
2023-10-10T17:36:23.923Z,8.00
2023-10-10T17:38:53.576Z,7.18
2023-10-10T17:41:20.628Z,7.43
2023-10-10T17:43:47.134Z,7.20
2023-10-10T17:46:21.459Z,7.20
2023-10-10T17:48:55.610Z,7.20
2023-10-10T17:51:24.998Z,6.80
2023-10-10T17:53:53.201Z,6.88
2023-10-10T17:56:24.288Z,6.45
2023-10-10T17:58:51.534Z,6.72
2023-10-10T18:01:21.249Z,6.67
2023-10-10T18:03:54.386Z,6.47
2023-10-10T18:06:22.826Z,6.53
2023-10-10T18:08:50.868Z,6.82
2023-10-10T18:11:17.550Z,6.22
2023-10-10T18:13:45.062Z,6.50
2023-10-10T18:16:11.616Z,6.65
2023-10-10T18:18:39.665Z,6.63
2023-10-10T18:21:08.930Z,6.95
2023-10-10T18:23:36.284Z,7.10
2023-10-10T18:26:10.658Z,6.20
2023-10-10T18:28:37.101Z,6.38
2023-10-10T18:31:03.595Z,5.70
2023-10-10T18:33:30.338Z,5.78
2023-10-10T18:35:56.944Z,5.68
2023-10-10T18:38:23.382Z,5.60
2023-10-10T18:40:49.834Z,5.47
2023-10-10T18:43:16.319Z,5.38
2023-10-10T18:45:42.760Z,5.45
2023-10-10T18:48:12.031Z,5.03
2023-10-10T18:50:40.123Z,5.67
2023-10-10T18:53:06.872Z,5.38
2023-10-10T18:55:33.386Z,4.70
2023-10-10T18:58:01.559Z,4.55
2023-10-10T19:00:29.846Z,4.60
2023-10-10T19:02:58.066Z,4.27
2023-10-10T19:05:27.516Z,4.13
2023-10-10T19:07:56.923Z,3.83
2023-10-10T19:10:25.616Z,4.05
2023-10-10T19:12:53.523Z,3.92
2023-10-10T19:15:20.947Z,3.47
2023-10-10T19:17:49.164Z,3.50
2023-10-10T19:20:19.307Z,3.50
2023-10-10T19:22:49.433Z,3.60
2023-10-10T19:25:20.179Z,3.40
2023-10-10T19:27:50.078Z,3.50
2023-10-10T19:30:19.641Z,3.50
2023-10-10T19:32:51.017Z,3.20
2023-10-10T19:35:20.851Z,3.88
2023-10-10T19:37:48.632Z,3.25
2023-10-10T19:40:20.119Z,3.17
2023-10-10T19:42:46.762Z,3.65
2023-10-10T19:45:24.610Z,3.30
2023-10-10T19:48:06.627Z,3.20
2023-10-10T19:50:43.394Z,3.20
2023-10-10T19:53:11.346Z,3.00
2023-10-10T19:55:39.038Z,3.08
2023-10-10T19:58:10.880Z,3.00
2023-10-10T20:00:40.349Z,3.20
2023-10-10T20:03:07.960Z,2.80
2023-10-10T20:05:38.146Z,2.90
2023-10-10T20:08:06.505Z,3.05
2023-10-10T20:10:33.195Z,2.95
2023-10-10T20:13:00.467Z,3.38
2023-10-10T20:15:30.292Z,3.33
2023-10-10T20:18:01.634Z,3.53
2023-10-10T20:20:28.477Z,3.25
2023-10-10T20:22:58.091Z,3.55
2023-10-10T20:25:25.089Z,2.90
2023-10-10T20:27:51.938Z,3.60
2023-10-10T20:30:20.233Z,3.67
2023-10-10T20:32:47.898Z,3.30
2023-10-10T20:35:18.241Z,3.83
2023-10-10T20:37:46.399Z,3.50
2023-10-10T20:40:19.913Z,3.42
2023-10-10T20:42:47.876Z,3.70
2023-10-10T20:45:18.758Z,3.33
2023-10-10T20:47:46.939Z,3.70
2023-10-10T20:50:15.420Z,3.35
2023-10-10T20:52:42.923Z,3.63
2023-10-10T20:55:14.348Z,3.53
2023-10-10T20:57:41.070Z,3.65
2023-10-10T21:00:12.824Z,3.70
2023-10-10T21:02:43.446Z,3.40
2023-10-10T21:05:10.192Z,3.40
2023-10-10T21:07:39.319Z,3.20
2023-10-10T21:10:10.550Z,3.10
2023-10-10T21:12:38.574Z,3.30
2023-10-10T21:15:06.213Z,3.53
2023-10-10T21:17:34.038Z,3.20
2023-10-10T21:20:05.842Z,3.40
2023-10-10T21:22:32.262Z,3.30
2023-10-10T21:25:01.117Z,3.30
2023-10-10T21:27:27.612Z,3.17
2023-10-10T21:29:54.556Z,3.28
2023-10-10T21:32:22.395Z,3.40
2023-10-10T21:34:49.005Z,3.58
2023-10-10T21:37:16.578Z,3.38
2023-10-10T21:39:43.036Z,3.40
2023-10-10T21:42:15.843Z,3.40
2023-10-10T21:44:42.593Z,3.43
2023-10-10T21:47:09.663Z,3.78
2023-10-10T21:49:38.416Z,3.80
2023-10-10T21:52:06.981Z,3.60
2023-10-10T21:54:33.841Z,3.78
2023-10-10T21:57:00.571Z,4.03
2023-10-10T21:59:27.173Z,4.28
2023-10-10T22:01:53.668Z,4.78
2023-10-10T22:04:20.779Z,5.20
2023-10-10T22:06:48.144Z,5.50
2023-10-10T22:09:18.331Z,5.30
2023-10-10T22:11:47.809Z,5.80
2023-10-10T22:14:14.907Z,6.00
2023-10-10T22:16:45.796Z,6.57
2023-10-10T22:19:12.751Z,6.65
2023-10-10T22:21:40.418Z,6.80
2023-10-10T22:24:07.792Z,6.97
2023-10-10T22:26:34.982Z,6.97
2023-10-10T22:29:02.134Z,7.47
2023-10-10T22:31:32.436Z,7.65
2023-10-10T22:33:59.889Z,6.73
2023-10-10T22:36:28.798Z,7.65
2023-10-10T22:38:55.398Z,7.90
2023-10-10T22:41:21.952Z,7.93
2023-10-10T22:43:49.651Z,8.25
2023-10-10T22:46:16.198Z,7.60
2023-10-10T22:48:44.297Z,8.38
2023-10-10T22:51:13.912Z,8.00
2023-10-10T22:53:40.962Z,8.70
2023-10-10T22:56:13.898Z,8.73
2023-10-10T22:58:43.737Z,8.53
2023-10-10T23:01:15.899Z,8.82
2023-10-10T23:03:44.365Z,8.90
2023-10-10T23:06:13.325Z,8.70
2023-10-10T23:08:40.789Z,9.52
2023-10-10T23:11:07.750Z,8.33
2023-10-10T23:13:35.585Z,9.40
2023-10-10T23:16:02.077Z,9.43
2023-10-10T23:18:28.641Z,8.82
2023-10-10T23:20:56.550Z,9.05
2023-10-10T23:23:23.116Z,9.27
2023-10-10T23:25:49.621Z,9.38
2023-10-10T23:28:16.281Z,10.27
2023-10-10T23:30:43.361Z,9.70
2023-10-10T23:33:14.257Z,9.18
2023-10-10T23:35:41.354Z,9.80
2023-10-10T23:38:08.004Z,9.32
2023-10-10T23:40:40.984Z,9.82
2023-10-10T23:43:22.487Z,9.52
2023-10-10T23:45:57.872Z,10.18
2023-10-10T23:48:31.402Z,9.90
2023-10-10T23:55:01.948Z,10.35
2023-10-10T23:57:29.476Z,10.27
2023-10-10T23:59:55.951Z,10.60
